createdAt,value
2019-04-27T00:00:04.024Z,10.60
2019-04-27T00:01:05.209Z,10.60
2019-04-27T00:02:05.678Z,10.60
2019-04-27T00:03:06.051Z,10.60
2019-04-27T00:04:04.139Z,10.60
2019-04-27T00:05:03.964Z,10.62
2019-04-27T00:06:05.366Z,10.62
2019-04-27T00:07:03.946Z,10.60
2019-04-27T00:08:03.945Z,10.60
2019-04-27T00:09:07.546Z,10.60
2019-04-27T00:10:03.923Z,10.60
2019-04-27T00:11:06.838Z,10.60
2019-04-27T00:12:05.703Z,10.62
2019-04-27T00:13:05.696Z,10.60
2019-04-27T00:14:03.891Z,10.59
2019-04-27T00:15:03.864Z,10.59
2019-04-27T00:16:09.755Z,10.58
2019-04-27T00:17:04.834Z,10.59
2019-04-27T00:18:03.837Z,10.59
2019-04-27T00:19:03.996Z,10.59
2019-04-27T00:20:04.335Z,10.58
2019-04-27T00:21:03.855Z,10.55
2019-04-27T00:22:03.796Z,10.55
2019-04-27T00:23:03.775Z,10.53
2019-04-27T00:24:03.763Z,10.52
2019-04-27T00:25:03.774Z,10.47
2019-04-27T00:26:03.760Z,10.47
2019-04-27T00:27:03.772Z,10.46
2019-04-27T00:28:05.406Z,10.46
2019-04-27T00:29:03.884Z,10.47
2019-04-27T00:30:04.012Z,10.44
2019-04-27T00:31:03.716Z,10.43
2019-04-27T00:32:04.237Z,10.42
2019-04-27T00:33:05.321Z,10.40
2019-04-27T00:34:03.756Z,10.40
2019-04-27T00:35:03.886Z,10.40
2019-04-27T00:36:03.645Z,10.40
2019-04-27T00:37:03.784Z,10.40
2019-04-27T00:38:03.605Z,10.39
2019-04-27T00:39:05.219Z,10.39
2019-04-27T00:40:03.595Z,10.39
2019-04-27T00:41:03.585Z,10.37
2019-04-27T00:42:03.565Z,10.37
2019-04-27T00:43:03.569Z,10.37
2019-04-27T00:44:03.545Z,10.34
2019-04-27T00:45:05.422Z,10.36
2019-04-27T00:46:04.084Z,10.34
2019-04-27T00:47:03.595Z,10.34
2019-04-27T00:48:03.693Z,10.36
2019-04-27T00:49:03.742Z,10.34
2019-04-27T00:50:03.648Z,10.36
2019-04-27T00:51:04.236Z,10.32
2019-04-27T00:52:03.742Z,10.32
2019-04-27T00:53:03.598Z,10.30
2019-04-27T00:54:04.660Z,10.28
2019-04-27T00:55:03.425Z,10.26
2019-04-27T00:56:03.905Z,10.24
2019-04-27T00:57:03.409Z,10.22
2019-04-27T00:58:04.215Z,10.22
2019-04-27T00:59:03.581Z,10.19
2019-04-27T01:00:05.117Z,10.19
2019-04-27T01:01:04.139Z,10.18
2019-04-27T01:02:03.782Z,10.17
2019-04-27T01:03:03.836Z,10.17
2019-04-27T01:04:03.758Z,10.17
2019-04-27T01:05:03.752Z,10.17
2019-04-27T01:06:03.356Z,10.18
2019-04-27T01:07:03.305Z,10.18
2019-04-27T01:08:03.795Z,10.18
2019-04-27T01:09:03.578Z,10.15
2019-04-27T01:10:05.238Z,10.14
2019-04-27T01:11:03.252Z,10.12
2019-04-27T01:12:03.698Z,10.10
2019-04-27T01:13:03.387Z,10.09
2019-04-27T01:14:03.881Z,10.06
2019-04-27T01:15:03.662Z,10.06
2019-04-27T01:16:03.196Z,10.03
2019-04-27T01:17:03.188Z,10.01
2019-04-27T01:18:12.097Z,9.99
2019-04-27T01:19:04.199Z,9.97
2019-04-27T01:20:03.160Z,9.97
2019-04-27T01:21:03.163Z,9.96
2019-04-27T01:22:03.139Z,9.94
2019-04-27T01:23:03.127Z,9.93
2019-04-27T01:24:03.120Z,9.89
2019-04-27T01:25:03.118Z,9.86
2019-04-27T01:26:03.098Z,9.85
2019-04-27T01:27:03.075Z,9.82
2019-04-27T01:28:03.099Z,9.79
2019-04-27T01:29:03.074Z,9.78
2019-04-27T01:30:03.051Z,9.75
2019-04-27T01:31:03.047Z,9.73
2019-04-27T01:32:03.050Z,9.70
2019-04-27T01:33:03.017Z,9.67
2019-04-27T01:34:03.011Z,9.66
2019-04-27T01:35:03.000Z,9.64
2019-04-27T01:36:02.987Z,9.64
2019-04-27T01:37:02.968Z,9.61
2019-04-27T01:38:02.979Z,9.57
2019-04-27T01:39:02.991Z,9.56
2019-04-27T01:40:02.949Z,9.50
2019-04-27T01:41:02.928Z,9.48
2019-04-27T01:42:02.917Z,9.43
2019-04-27T01:43:02.907Z,9.40
2019-04-27T01:44:02.910Z,9.38
2019-04-27T01:45:02.907Z,9.34
2019-04-27T01:46:02.879Z,9.34
2019-04-27T01:47:02.879Z,9.31
2019-04-27T01:48:02.867Z,9.30
2019-04-27T01:49:02.838Z,9.27
2019-04-27T01:50:02.901Z,9.24
2019-04-27T01:51:02.829Z,9.23
2019-04-27T01:52:02.828Z,9.21
2019-04-27T01:53:02.809Z,9.16
2019-04-27T01:54:02.787Z,9.13
2019-04-27T01:55:02.791Z,9.12
2019-04-27T01:56:02.780Z,9.12
2019-04-27T01:57:04.213Z,9.10
2019-04-27T01:58:02.759Z,9.09
2019-04-27T01:59:02.747Z,9.09
2019-04-27T02:00:02.891Z,9.09
2019-04-27T02:01:02.742Z,9.06
2019-04-27T02:02:02.910Z,9.06
2019-04-27T02:03:02.699Z,9.06
2019-04-27T02:04:02.677Z,9.05
2019-04-27T02:05:02.679Z,9.04
2019-04-27T02:06:02.679Z,9.04
2019-04-27T02:07:02.647Z,9.04
2019-04-27T02:08:02.677Z,9.04
2019-04-27T02:09:02.628Z,9.04
2019-04-27T02:10:02.618Z,9.02
2019-04-27T02:11:02.630Z,9.04
2019-04-27T02:12:02.606Z,9.04
2019-04-27T02:13:02.585Z,9.04
2019-04-27T02:14:02.589Z,9.02
2019-04-27T02:15:02.570Z,9.04
2019-04-27T02:16:02.563Z,9.05
2019-04-27T02:17:02.547Z,9.05
2019-04-27T02:18:02.526Z,9.05
2019-04-27T02:19:02.527Z,9.05
2019-04-27T02:20:02.521Z,9.06
2019-04-27T02:21:02.549Z,9.06
2019-04-27T02:22:02.501Z,9.06
2019-04-27T02:23:02.493Z,9.10
2019-04-27T02:24:02.488Z,9.12
2019-04-27T02:25:02.468Z,9.12
2019-04-27T02:26:02.467Z,9.12
2019-04-27T02:27:02.450Z,9.09
2019-04-27T02:28:02.438Z,9.09
2019-04-27T02:29:02.429Z,9.09
2019-04-27T02:30:02.420Z,9.09
2019-04-27T02:31:02.402Z,9.05
2019-04-27T02:32:03.089Z,9.05
2019-04-27T02:33:02.385Z,9.06
2019-04-27T02:34:02.383Z,9.06
2019-04-27T02:35:02.371Z,9.06
2019-04-27T02:36:02.342Z,9.10
2019-04-27T02:37:02.837Z,9.12
2019-04-27T02:38:02.329Z,9.13
2019-04-27T02:39:02.329Z,9.15
2019-04-27T02:40:02.299Z,9.16
2019-04-27T02:41:02.296Z,9.18
2019-04-27T02:42:02.287Z,9.21
2019-04-27T02:43:02.267Z,9.23
2019-04-27T02:44:02.256Z,9.25
2019-04-27T02:45:02.270Z,9.27
2019-04-27T02:46:02.226Z,9.30
2019-04-27T02:47:02.245Z,9.31
2019-04-27T02:48:02.216Z,9.31
2019-04-27T02:49:06.441Z,9.32
2019-04-27T02:50:02.192Z,9.31
2019-04-27T02:51:02.186Z,9.34
2019-04-27T02:52:02.189Z,9.32
2019-04-27T02:53:03.208Z,9.34
2019-04-27T02:54:02.154Z,9.32
2019-04-27T02:55:02.182Z,9.32
2019-04-27T02:56:02.128Z,9.32
2019-04-27T02:57:02.142Z,9.31
2019-04-27T02:58:02.111Z,9.32
2019-04-27T02:59:02.113Z,9.38
2019-04-27T03:00:02.091Z,9.39
2019-04-27T03:01:02.092Z,9.38
2019-04-27T03:02:02.092Z,9.39
2019-04-27T03:03:02.495Z,9.35
2019-04-27T03:04:02.071Z,9.38
2019-04-27T03:05:02.038Z,9.38
2019-04-27T03:06:02.057Z,9.40
2019-04-27T03:07:02.009Z,9.38
2019-04-27T03:08:02.005Z,9.34
2019-04-27T03:09:01.999Z,9.35
2019-04-27T03:10:02.716Z,9.34
2019-04-27T03:11:01.981Z,9.32
2019-04-27T03:12:01.956Z,9.31
2019-04-27T03:13:01.957Z,9.31
2019-04-27T03:14:01.988Z,9.32
2019-04-27T03:15:01.929Z,9.32
2019-04-27T03:16:01.922Z,9.35
2019-04-27T03:17:01.897Z,9.35
2019-04-27T03:18:01.932Z,9.38
2019-04-27T03:19:11.505Z,9.39
2019-04-27T03:20:02.897Z,9.39
2019-04-27T03:21:01.860Z,9.38
2019-04-27T03:22:01.847Z,9.39
2019-04-27T03:23:01.859Z,9.39
2019-04-27T03:24:01.838Z,9.40
2019-04-27T03:25:01.829Z,9.40
2019-04-27T03:26:01.796Z,9.42
2019-04-27T03:27:01.829Z,9.42
2019-04-27T03:28:02.612Z,9.42
2019-04-27T03:29:01.775Z,9.43
2019-04-27T03:30:01.814Z,9.43
2019-04-27T03:31:02.834Z,9.43
2019-04-27T03:32:02.185Z,9.42
2019-04-27T03:33:03.409Z,9.43
2019-04-27T03:34:05.149Z,9.42
2019-04-27T03:35:03.334Z,9.43
2019-04-27T03:36:02.918Z,9.45
2019-04-27T03:37:01.703Z,9.42
2019-04-27T03:38:01.710Z,9.42
2019-04-27T03:39:01.688Z,9.43
2019-04-27T03:40:01.662Z,9.46
2019-04-27T03:41:01.666Z,9.45
2019-04-27T03:42:01.670Z,9.45
2019-04-27T03:43:01.644Z,9.43
2019-04-27T03:44:01.606Z,9.43
2019-04-27T03:45:01.617Z,9.42
2019-04-27T03:46:01.628Z,9.42
2019-04-27T03:47:01.587Z,9.42
2019-04-27T03:48:01.564Z,9.40
2019-04-27T03:49:01.581Z,9.42
2019-04-27T03:50:01.546Z,9.43
2019-04-27T03:51:01.556Z,9.45
2019-04-27T03:52:03.103Z,9.45
2019-04-27T03:53:01.519Z,9.45
2019-04-27T03:54:01.520Z,9.46
2019-04-27T03:55:01.506Z,9.46
2019-04-27T03:56:01.494Z,9.46
2019-04-27T03:57:02.460Z,9.46
2019-04-27T03:58:01.468Z,9.46
2019-04-27T03:59:01.469Z,9.46
2019-04-27T04:00:01.459Z,9.46
2019-04-27T04:01:01.447Z,9.48
2019-04-27T04:02:02.471Z,9.46
2019-04-27T04:03:01.415Z,9.50
2019-04-27T04:04:01.401Z,9.52
2019-04-27T04:05:01.430Z,9.52
2019-04-27T04:06:01.386Z,9.53
2019-04-27T04:07:01.376Z,9.56
2019-04-27T04:08:01.351Z,9.57
2019-04-27T04:09:01.337Z,9.57
2019-04-27T04:10:01.346Z,9.57
2019-04-27T04:11:01.324Z,9.53
2019-04-27T04:12:02.225Z,9.57
2019-04-27T04:13:01.900Z,9.57
2019-04-27T04:14:01.293Z,9.57
2019-04-27T04:15:01.273Z,9.56
2019-04-27T04:16:01.268Z,9.56
2019-04-27T04:17:02.896Z,9.56
2019-04-27T04:18:01.244Z,9.56
2019-04-27T04:19:01.382Z,9.57
2019-04-27T04:20:01.790Z,9.57
2019-04-27T04:21:01.229Z,9.57
2019-04-27T04:22:01.215Z,9.57
2019-04-27T04:23:03.314Z,9.61
2019-04-27T04:24:01.511Z,9.64
2019-04-27T04:25:01.191Z,9.64
2019-04-27T04:26:01.165Z,9.64
2019-04-27T04:27:01.155Z,9.63
2019-04-27T04:28:01.165Z,9.63
2019-04-27T04:29:01.155Z,9.61
2019-04-27T04:30:01.157Z,9.63
2019-04-27T04:31:01.103Z,9.63
2019-04-27T04:32:01.091Z,9.61
2019-04-27T04:33:01.120Z,9.63
2019-04-27T04:34:01.079Z,9.61
2019-04-27T04:35:01.453Z,9.63
2019-04-27T04:36:01.064Z,9.64
2019-04-27T04:37:01.104Z,9.66
2019-04-27T04:38:01.036Z,9.68
2019-04-27T04:39:01.054Z,9.70
2019-04-27T04:40:01.039Z,9.71
2019-04-27T04:41:00.991Z,9.73
2019-04-27T04:42:00.992Z,9.75
2019-04-27T04:43:03.374Z,9.78
2019-04-27T04:44:00.965Z,9.81
2019-04-27T04:45:00.953Z,9.83
2019-04-27T04:46:00.954Z,9.86
2019-04-27T04:47:00.938Z,9.83
2019-04-27T04:48:00.952Z,9.83
2019-04-27T04:49:00.913Z,9.85
2019-04-27T04:50:11.112Z,9.88
2019-04-27T04:51:01.894Z,9.88
2019-04-27T04:52:00.892Z,9.91
2019-04-27T04:53:00.861Z,9.94
2019-04-27T04:54:00.863Z,9.96
2019-04-27T04:55:02.509Z,9.94
2019-04-27T04:56:00.853Z,9.97
2019-04-27T04:57:00.840Z,10.00
2019-04-27T04:58:00.815Z,10.03
2019-04-27T04:59:00.820Z,10.04
2019-04-27T05:00:01.621Z,10.06
2019-04-27T05:01:01.830Z,10.09
2019-04-27T05:02:02.331Z,10.12
2019-04-27T05:03:00.760Z,10.17
2019-04-27T05:04:00.752Z,10.19
2019-04-27T05:05:00.774Z,10.22
2019-04-27T05:06:00.733Z,10.24
2019-04-27T05:07:00.729Z,10.26
2019-04-27T05:08:01.680Z,10.28
2019-04-27T05:09:00.692Z,10.32
2019-04-27T05:10:00.680Z,10.34
2019-04-27T05:11:00.691Z,10.39
2019-04-27T05:12:00.663Z,10.40
2019-04-27T05:13:00.652Z,10.44
2019-04-27T05:14:01.549Z,10.47
2019-04-27T05:15:00.750Z,10.52
2019-04-27T05:16:00.624Z,10.53
2019-04-27T05:17:00.608Z,10.59
2019-04-27T05:18:00.602Z,10.63
2019-04-27T05:19:00.589Z,10.66
2019-04-27T05:20:00.592Z,10.71
2019-04-27T05:21:00.557Z,10.76
2019-04-27T05:22:00.548Z,10.80
2019-04-27T05:23:00.543Z,10.83
2019-04-27T05:24:00.816Z,10.88
2019-04-27T05:25:00.588Z,10.92
2019-04-27T05:26:00.524Z,10.91
2019-04-27T05:27:00.508Z,10.96
2019-04-27T05:28:00.500Z,10.99
2019-04-27T05:29:00.470Z,11.02
2019-04-27T05:30:00.457Z,11.09
2019-04-27T05:31:00.691Z,11.09
2019-04-27T05:32:00.452Z,11.11
2019-04-27T05:33:00.428Z,11.13
2019-04-27T05:34:00.433Z,11.16
2019-04-27T05:35:00.410Z,11.19
2019-04-27T05:36:00.418Z,11.24
2019-04-27T05:37:01.143Z,11.28
2019-04-27T05:38:06.820Z,11.29
2019-04-27T05:39:01.380Z,11.34
2019-04-27T05:40:00.367Z,11.36
2019-04-27T05:41:00.347Z,11.38
2019-04-27T05:42:00.341Z,11.38
2019-04-27T05:43:00.326Z,11.41
2019-04-27T05:44:03.259Z,11.44
2019-04-27T05:45:01.319Z,11.46
2019-04-27T05:46:01.126Z,11.49
2019-04-27T05:47:00.298Z,11.50
2019-04-27T05:48:00.737Z,11.54
2019-04-27T05:49:06.074Z,11.56
2019-04-27T05:50:01.256Z,11.56
2019-04-27T05:51:01.832Z,11.56
2019-04-27T05:52:00.236Z,11.56
2019-04-27T05:53:00.218Z,11.56
2019-04-27T05:54:00.212Z,11.57
2019-04-27T05:55:00.196Z,11.59
2019-04-27T05:56:00.193Z,11.61
2019-04-27T05:57:00.186Z,11.64
2019-04-27T05:58:00.171Z,11.62
2019-04-27T05:59:00.412Z,11.68
2019-04-27T06:00:02.071Z,11.72
2019-04-27T06:01:00.149Z,11.77
2019-04-27T06:02:00.137Z,11.80
2019-04-27T06:03:00.106Z,11.83
2019-04-27T06:04:00.093Z,11.85
2019-04-27T06:05:00.359Z,11.85
2019-04-27T06:06:01.707Z,11.85
2019-04-27T06:07:01.027Z,11.87
2019-04-27T06:08:00.045Z,11.89
2019-04-27T06:09:00.048Z,11.87
2019-04-27T06:10:00.112Z,11.96
2019-04-27T06:11:00.013Z,12.04
2019-04-27T06:12:00.046Z,12.09
2019-04-27T06:12:59.997Z,12.16
2019-04-27T06:14:00.003Z,12.24
2019-04-27T06:15:00.244Z,12.37
2019-04-27T06:15:59.977Z,12.48
2019-04-27T06:16:59.955Z,12.59
2019-04-27T06:17:59.955Z,12.67
2019-04-27T06:18:59.936Z,12.75
2019-04-27T06:19:59.934Z,12.79
2019-04-27T06:20:59.949Z,12.93
2019-04-27T06:22:01.323Z,13.03
2019-04-27T06:22:59.890Z,13.12
2019-04-27T06:23:59.904Z,13.24
2019-04-27T06:25:00.396Z,13.32
2019-04-27T06:26:01.846Z,13.38
2019-04-27T06:26:59.918Z,13.43
2019-04-27T06:27:59.887Z,13.44
2019-04-27T06:28:59.855Z,13.51
2019-04-27T06:29:59.814Z,13.54
2019-04-27T06:30:59.803Z,13.62
2019-04-27T06:31:59.805Z,13.71
2019-04-27T06:32:59.795Z,13.80
2019-04-27T06:33:59.909Z,13.83
2019-04-27T06:34:59.778Z,13.83
2019-04-27T06:36:01.759Z,13.79
2019-04-27T06:37:00.031Z,13.76
2019-04-27T06:37:59.723Z,13.79
2019-04-27T06:38:59.723Z,13.80
2019-04-27T06:39:59.986Z,13.80
2019-04-27T06:41:01.425Z,13.87
2019-04-27T06:42:01.266Z,13.92
2019-04-27T06:42:59.685Z,13.98
2019-04-27T06:43:59.665Z,13.95
2019-04-27T06:45:00.134Z,13.89
2019-04-27T06:45:59.643Z,13.88
2019-04-27T06:46:59.707Z,13.88
2019-04-27T06:47:59.685Z,13.94
2019-04-27T06:48:59.602Z,13.96
2019-04-27T06:49:59.591Z,13.98
2019-04-27T06:51:05.046Z,13.98
2019-04-27T06:52:00.587Z,13.94
2019-04-27T06:52:59.563Z,13.96
2019-04-27T06:53:59.595Z,13.98
2019-04-27T06:55:00.647Z,13.91
2019-04-27T06:55:59.543Z,13.96
2019-04-27T06:56:59.514Z,13.98
2019-04-27T06:57:59.504Z,14.02
2019-04-27T06:58:59.821Z,13.99
2019-04-27T06:59:59.483Z,14.09
2019-04-27T07:00:59.641Z,14.13
2019-04-27T07:02:00.862Z,14.13
2019-04-27T07:02:59.756Z,14.04
2019-04-27T07:03:59.873Z,14.02
2019-04-27T07:04:59.450Z,14.01
2019-04-27T07:05:59.431Z,13.99
2019-04-27T07:07:01.635Z,13.94
2019-04-27T07:07:59.403Z,13.88
2019-04-27T07:08:59.837Z,13.83
2019-04-27T07:09:59.564Z,13.74
2019-04-27T07:10:59.412Z,13.67
2019-04-27T07:11:59.440Z,13.58
2019-04-27T07:12:59.770Z,13.55
2019-04-27T07:13:59.474Z,13.51
2019-04-27T07:14:59.412Z,13.46
2019-04-27T07:15:59.741Z,13.51
2019-04-27T07:16:59.319Z,13.52
2019-04-27T07:17:59.313Z,13.52
2019-04-27T07:18:59.461Z,13.52
2019-04-27T07:19:59.625Z,13.54
2019-04-27T07:20:59.271Z,13.54
2019-04-27T07:21:59.608Z,13.58
2019-04-27T07:22:59.569Z,13.54
2019-04-27T07:23:59.672Z,13.55
2019-04-27T07:24:59.211Z,13.61
2019-04-27T07:25:59.879Z,13.62
2019-04-27T07:26:59.776Z,13.63
2019-04-27T07:27:59.333Z,13.63
2019-04-27T07:28:59.733Z,13.63
2019-04-27T07:30:01.511Z,13.63
2019-04-27T07:30:59.610Z,13.67
2019-04-27T07:31:59.635Z,13.70
2019-04-27T07:33:00.410Z,13.73
2019-04-27T07:33:59.618Z,13.71
2019-04-27T07:34:59.100Z,13.71
2019-04-27T07:35:59.174Z,13.74
2019-04-27T07:36:59.722Z,13.79
2019-04-27T07:37:59.120Z,13.84
2019-04-27T07:38:59.909Z,13.87
2019-04-27T07:39:59.265Z,13.83
2019-04-27T07:40:59.053Z,13.74
2019-04-27T07:41:59.032Z,13.69
2019-04-27T07:42:59.434Z,13.69
2019-04-27T07:43:59.012Z,13.61
2019-04-27T07:44:59.517Z,13.54
2019-04-27T07:45:59.134Z,13.52
2019-04-27T07:46:59.472Z,13.51
2019-04-27T07:47:59.178Z,13.55
2019-04-27T07:48:59.506Z,13.58
2019-04-27T07:49:59.587Z,13.58
2019-04-27T07:50:59.117Z,13.63
2019-04-27T07:51:59.014Z,13.63
2019-04-27T07:52:58.933Z,13.67
2019-04-27T07:53:59.015Z,13.65
2019-04-27T07:54:58.912Z,13.62
2019-04-27T07:55:59.317Z,13.58
2019-04-27T07:56:58.865Z,13.58
2019-04-27T07:57:59.525Z,13.59
2019-04-27T07:58:59.557Z,13.54
2019-04-27T07:59:59.677Z,13.49
2019-04-27T08:00:59.464Z,13.44
2019-04-27T08:01:59.171Z,13.36
2019-04-27T08:02:58.969Z,13.20
2019-04-27T08:03:59.126Z,13.18
2019-04-27T08:04:59.618Z,13.04
2019-04-27T08:05:58.946Z,12.93
2019-04-27T08:06:59.540Z,12.85
2019-04-27T08:08:00.230Z,12.77
2019-04-27T08:08:59.359Z,12.77
2019-04-27T08:10:01.073Z,12.69
2019-04-27T08:10:59.514Z,12.64
2019-04-27T08:11:58.741Z,12.60
2019-04-27T08:12:59.750Z,12.54
2019-04-27T08:13:58.943Z,12.59
2019-04-27T08:15:00.077Z,12.57
2019-04-27T08:15:59.108Z,12.60
2019-04-27T08:16:58.727Z,12.59
2019-04-27T08:17:59.232Z,12.57
2019-04-27T08:18:59.991Z,12.48
2019-04-27T08:19:59.574Z,12.41
2019-04-27T08:20:59.009Z,12.37
2019-04-27T08:21:59.643Z,12.38
2019-04-27T08:22:59.859Z,12.37
2019-04-27T08:23:58.745Z,12.37
2019-04-27T08:24:59.498Z,12.38
2019-04-27T08:25:58.937Z,12.41
2019-04-27T08:26:59.436Z,12.44
2019-04-27T08:28:00.220Z,12.46
2019-04-27T08:28:58.654Z,12.48
2019-04-27T08:29:58.862Z,12.46
2019-04-27T08:30:59.004Z,12.38
2019-04-27T08:31:58.590Z,12.30
2019-04-27T08:32:59.371Z,12.27
2019-04-27T08:34:00.044Z,12.21
2019-04-27T08:34:59.501Z,12.23
2019-04-27T08:35:59.068Z,12.16
2019-04-27T08:37:00.646Z,12.12
2019-04-27T08:37:59.407Z,12.12
2019-04-27T08:38:58.837Z,12.12
2019-04-27T08:39:59.248Z,12.04
2019-04-27T08:40:59.247Z,12.02
2019-04-27T08:41:59.481Z,11.97
2019-04-27T08:42:59.193Z,11.94
2019-04-27T08:43:58.798Z,11.94
2019-04-27T08:44:59.384Z,11.99
2019-04-27T08:45:58.902Z,12.04
2019-04-27T08:46:59.651Z,11.99
2019-04-27T08:47:59.456Z,12.01
2019-04-27T08:48:58.730Z,12.04
2019-04-27T08:49:59.101Z,12.13
2019-04-27T08:50:59.367Z,12.23
2019-04-27T08:52:01.675Z,12.31
2019-04-27T08:52:58.269Z,12.41
2019-04-27T08:53:59.141Z,12.44
2019-04-27T08:54:59.449Z,12.48
2019-04-27T08:55:59.173Z,12.51
2019-04-27T08:56:59.642Z,12.54
2019-04-27T08:57:58.736Z,12.51
2019-04-27T08:58:59.505Z,12.49
2019-04-27T08:59:59.647Z,12.52
2019-04-27T09:00:59.037Z,12.54
2019-04-27T09:01:58.733Z,12.46
2019-04-27T09:02:59.536Z,12.45
2019-04-27T09:03:59.283Z,12.46
2019-04-27T09:04:59.659Z,12.52
2019-04-27T09:05:59.045Z,12.54
2019-04-27T09:06:59.782Z,12.54
2019-04-27T09:07:59.686Z,12.52
2019-04-27T09:08:59.301Z,12.49
2019-04-27T09:09:59.638Z,12.49
2019-04-27T09:10:58.985Z,12.54
2019-04-27T09:11:59.454Z,12.62
2019-04-27T09:12:58.868Z,12.63
2019-04-27T09:13:58.966Z,12.64
2019-04-27T09:14:59.199Z,12.64
2019-04-27T09:15:59.926Z,12.64
2019-04-27T09:17:02.281Z,12.69
2019-04-27T09:17:58.847Z,12.77
2019-04-27T09:18:59.672Z,12.78
2019-04-27T09:19:59.105Z,12.71
2019-04-27T09:20:58.942Z,12.67
2019-04-27T09:22:10.391Z,12.63
2019-04-27T09:22:59.268Z,12.64
2019-04-27T09:23:59.299Z,12.69
2019-04-27T09:24:59.464Z,12.75
2019-04-27T09:25:59.484Z,12.85
2019-04-27T09:26:59.556Z,12.88
2019-04-27T09:27:59.666Z,12.97
2019-04-27T09:28:59.513Z,13.07
2019-04-27T09:29:59.043Z,13.20
2019-04-27T09:30:58.630Z,13.24
2019-04-27T09:32:01.512Z,13.25
2019-04-27T09:32:57.830Z,13.30
2019-04-27T09:33:57.840Z,13.40
2019-04-27T09:34:57.810Z,13.41
2019-04-27T09:35:57.798Z,13.43
2019-04-27T09:36:57.800Z,13.55
2019-04-27T09:37:57.780Z,13.61
2019-04-27T09:38:57.783Z,13.59
2019-04-27T09:39:57.747Z,13.63
2019-04-27T09:40:58.103Z,13.65
2019-04-27T09:41:57.770Z,13.58
2019-04-27T09:42:57.718Z,13.63
2019-04-27T09:43:57.752Z,13.71
2019-04-27T09:44:57.697Z,13.80
2019-04-27T09:45:57.687Z,13.80
2019-04-27T09:46:57.685Z,13.88
2019-04-27T09:47:57.700Z,13.92
2019-04-27T09:48:57.736Z,13.95
2019-04-27T09:49:57.655Z,13.96
2019-04-27T09:50:57.636Z,14.01
2019-04-27T09:51:57.627Z,14.12
2019-04-27T09:52:57.735Z,14.12
2019-04-27T09:53:57.628Z,14.14
2019-04-27T09:54:57.650Z,14.21
2019-04-27T09:55:57.589Z,14.28
2019-04-27T09:56:57.582Z,14.20
2019-04-27T09:57:57.580Z,14.14
2019-04-27T09:58:57.680Z,14.12
2019-04-27T09:59:57.557Z,14.06
2019-04-27T10:00:57.539Z,13.98
2019-04-27T10:01:57.804Z,13.96
2019-04-27T10:02:57.680Z,13.91
2019-04-27T10:03:57.498Z,13.79
2019-04-27T10:04:57.497Z,13.74
2019-04-27T10:05:57.679Z,13.65
2019-04-27T10:06:57.466Z,13.55
2019-04-27T10:07:57.477Z,13.47
2019-04-27T10:08:57.761Z,13.44
2019-04-27T10:09:57.487Z,13.44
2019-04-27T10:10:57.439Z,13.40
2019-04-27T10:11:57.430Z,13.38
2019-04-27T10:12:57.427Z,13.33
2019-04-27T10:13:57.387Z,13.32
2019-04-27T10:14:57.396Z,13.30
2019-04-27T10:15:57.376Z,13.29
2019-04-27T10:16:57.389Z,13.24
2019-04-27T10:17:57.704Z,13.22
2019-04-27T10:18:57.358Z,13.20
2019-04-27T10:19:57.338Z,13.25
2019-04-27T10:21:01.858Z,13.30
2019-04-27T10:21:58.307Z,13.25
2019-04-27T10:22:57.332Z,13.25
2019-04-27T10:23:58.028Z,13.22
2019-04-27T10:24:57.289Z,13.20
2019-04-27T10:25:57.258Z,13.20
2019-04-27T10:26:57.277Z,13.21
2019-04-27T10:27:57.276Z,13.25
2019-04-27T10:28:57.248Z,13.27
2019-04-27T10:29:58.521Z,13.29
2019-04-27T10:30:57.382Z,13.27
2019-04-27T10:31:57.209Z,13.33
2019-04-27T10:32:57.259Z,13.30
2019-04-27T10:33:57.202Z,13.40
2019-04-27T10:34:57.187Z,13.46
2019-04-27T10:35:57.147Z,13.52
2019-04-27T10:36:57.146Z,13.49
2019-04-27T10:37:57.141Z,13.47
2019-04-27T10:38:57.126Z,13.47
2019-04-27T10:39:57.118Z,13.47
2019-04-27T10:40:57.317Z,13.51
2019-04-27T10:41:57.169Z,13.61
2019-04-27T10:42:57.076Z,13.63
2019-04-27T10:43:57.252Z,13.58
2019-04-27T10:44:57.056Z,13.56
2019-04-27T10:45:57.047Z,13.59
2019-04-27T10:46:57.708Z,13.58
2019-04-27T10:47:57.039Z,13.62
2019-04-27T10:48:57.248Z,13.69
2019-04-27T10:49:57.019Z,13.61
2019-04-27T10:50:57.137Z,13.55
2019-04-27T10:51:56.987Z,13.56
2019-04-27T10:52:59.300Z,13.69
2019-04-27T10:53:56.967Z,13.80
2019-04-27T10:54:57.422Z,13.91
2019-04-27T10:55:57.176Z,13.92
2019-04-27T10:56:57.019Z,13.91
2019-04-27T10:57:56.981Z,13.91
2019-04-27T10:58:56.909Z,13.95
2019-04-27T10:59:56.896Z,14.06
2019-04-27T11:00:58.433Z,14.09
2019-04-27T11:01:56.916Z,14.09
2019-04-27T11:02:58.368Z,14.17
2019-04-27T11:03:57.484Z,14.21
2019-04-27T11:04:56.905Z,14.20
2019-04-27T11:05:57.010Z,14.12
2019-04-27T11:06:56.915Z,14.01
2019-04-27T11:07:57.036Z,13.95
2019-04-27T11:08:56.828Z,13.91
2019-04-27T11:09:56.817Z,13.80
2019-04-27T11:10:56.973Z,13.71
2019-04-27T11:11:56.786Z,13.56
2019-04-27T11:12:56.866Z,13.46
2019-04-27T11:14:00.724Z,13.36
2019-04-27T11:14:56.746Z,13.18
2019-04-27T11:15:56.727Z,13.06
2019-04-27T11:16:56.717Z,13.02
2019-04-27T11:17:56.706Z,12.95
2019-04-27T11:18:58.737Z,12.78
2019-04-27T11:19:56.685Z,12.70
2019-04-27T11:20:56.828Z,12.59
2019-04-27T11:21:56.659Z,12.49
2019-04-27T11:23:06.694Z,12.37
2019-04-27T11:23:57.640Z,12.19
2019-04-27T11:24:56.627Z,11.97
2019-04-27T11:25:56.626Z,11.87
2019-04-27T11:26:56.746Z,11.80
2019-04-27T11:27:57.796Z,11.80
2019-04-27T11:28:56.815Z,11.75
2019-04-27T11:29:56.577Z,11.75
2019-04-27T11:30:56.647Z,11.78
2019-04-27T11:31:56.558Z,11.78
2019-04-27T11:32:58.966Z,11.82
2019-04-27T11:33:56.706Z,11.87
2019-04-27T11:34:56.516Z,11.90
2019-04-27T11:35:56.528Z,11.97
2019-04-27T11:36:56.527Z,12.02
2019-04-27T11:37:56.490Z,12.02
2019-04-27T11:38:56.573Z,11.99
2019-04-27T11:39:56.578Z,12.04
2019-04-27T11:40:56.783Z,12.13
2019-04-27T11:41:56.459Z,12.21
2019-04-27T11:42:57.334Z,12.27
2019-04-27T11:43:56.658Z,12.37
2019-04-27T11:44:58.279Z,12.48
2019-04-27T11:45:56.397Z,12.56
2019-04-27T11:46:56.408Z,12.62
2019-04-27T11:47:57.124Z,12.71
2019-04-27T11:48:58.282Z,12.74
2019-04-27T11:49:57.954Z,12.67
2019-04-27T11:50:56.346Z,12.70
2019-04-27T11:51:56.780Z,12.67
2019-04-27T11:52:56.710Z,12.77
2019-04-27T11:53:56.336Z,12.79
2019-04-27T11:54:56.309Z,12.79
2019-04-27T11:55:56.297Z,12.79
2019-04-27T11:56:56.288Z,12.82
2019-04-27T11:57:56.257Z,12.82
2019-04-27T11:58:56.285Z,12.77
2019-04-27T11:59:57.971Z,12.60
2019-04-27T12:00:56.237Z,12.51
2019-04-27T12:01:56.228Z,12.46
2019-04-27T12:02:56.763Z,12.45
2019-04-27T12:03:56.208Z,12.48
2019-04-27T12:04:57.225Z,12.46
2019-04-27T12:06:00.040Z,12.44
2019-04-27T12:06:56.557Z,12.39
2019-04-27T12:07:56.294Z,12.29
2019-04-27T12:08:56.365Z,12.20
2019-04-27T12:09:56.140Z,12.13
2019-04-27T12:10:56.116Z,12.04
2019-04-27T12:12:06.761Z,11.90
2019-04-27T12:12:57.194Z,11.78
2019-04-27T12:13:56.280Z,11.62
2019-04-27T12:14:56.223Z,11.47
2019-04-27T12:15:56.163Z,11.31
2019-04-27T12:16:56.235Z,11.11
2019-04-27T12:17:56.348Z,11.02
2019-04-27T12:18:56.476Z,10.96
2019-04-27T12:19:56.085Z,10.99
2019-04-27T12:20:56.025Z,11.06
2019-04-27T12:21:56.561Z,11.14
2019-04-27T12:22:56.088Z,11.17
2019-04-27T12:23:55.998Z,11.21
2019-04-27T12:24:56.201Z,11.29
2019-04-27T12:25:56.416Z,11.38
2019-04-27T12:26:57.465Z,11.49
2019-04-27T12:27:55.994Z,11.68
2019-04-27T12:28:56.153Z,11.78
2019-04-27T12:29:55.947Z,11.93
2019-04-27T12:30:55.946Z,11.97
2019-04-27T12:31:56.284Z,12.02
2019-04-27T12:32:55.950Z,12.15
2019-04-27T12:33:56.107Z,12.26
2019-04-27T12:34:56.536Z,12.27
2019-04-27T12:35:56.907Z,12.34
2019-04-27T12:36:55.857Z,12.37
2019-04-27T12:37:56.085Z,12.33
2019-04-27T12:38:56.644Z,12.33
2019-04-27T12:39:57.588Z,12.37
2019-04-27T12:40:56.535Z,12.41
2019-04-27T12:41:56.058Z,12.46
2019-04-27T12:42:55.774Z,12.49
2019-04-27T12:43:56.136Z,12.52
2019-04-27T12:44:55.778Z,12.54
2019-04-27T12:45:56.010Z,12.52
2019-04-27T12:46:57.507Z,12.59
2019-04-27T12:47:56.786Z,12.63
2019-04-27T12:48:57.227Z,12.63
2019-04-27T12:49:57.527Z,12.54
2019-04-27T12:50:56.346Z,12.52
2019-04-27T12:51:55.889Z,12.54
2019-04-27T12:52:55.687Z,12.51
2019-04-27T12:53:56.048Z,12.44
2019-04-27T12:54:55.657Z,12.48
2019-04-27T12:55:56.530Z,12.54
2019-04-27T12:56:55.949Z,12.54
2019-04-27T12:57:55.627Z,12.63
2019-04-27T12:58:56.490Z,12.57